createdAt,value
2023-05-04T00:00:31.586Z,67.49
2023-05-04T00:03:33.567Z,67.42
2023-05-04T00:06:35.486Z,67.76
2023-05-04T00:09:37.736Z,67.87
2023-05-04T00:12:40.313Z,68.05
2023-05-04T00:15:42.458Z,68.11
2023-05-04T00:18:44.370Z,68.15
2023-05-04T00:21:46.587Z,68.18
2023-05-04T00:24:48.601Z,68.56
2023-05-04T00:27:50.532Z,68.59
2023-05-04T00:30:56.290Z,68.59
2023-05-04T00:33:58.461Z,68.42
2023-05-04T00:37:01.166Z,68.83
2023-05-04T00:40:03.325Z,68.82
2023-05-04T00:43:05.496Z,69.05
2023-05-04T00:46:07.969Z,69.07
2023-05-04T00:49:11.264Z,69.34
2023-05-04T00:52:14.726Z,69.13
2023-05-04T00:55:18.192Z,69.11
2023-05-04T00:58:21.261Z,69.32
2023-05-04T01:01:24.857Z,69.48
2023-05-04T01:04:26.987Z,69.61
2023-05-04T01:07:48.073Z,70.24
2023-05-04T01:10:57.004Z,69.89
2023-05-04T01:14:01.476Z,69.69
2023-05-04T01:17:06.782Z,70.13
2023-05-04T01:20:09.664Z,69.66
2023-05-04T01:23:11.769Z,70.68
2023-05-04T01:26:29.118Z,69.89
2023-05-04T01:29:56.021Z,70.11
2023-05-04T01:33:02.493Z,69.75
2023-05-04T01:36:04.631Z,70.08
2023-05-04T01:39:06.923Z,70.58
2023-05-04T01:42:08.859Z,70.39
2023-05-04T01:45:11.414Z,70.58
2023-05-04T01:48:13.317Z,70.48
2023-05-04T01:51:15.188Z,71.26
2023-05-04T01:54:17.121Z,71.00
2023-05-04T01:57:19.058Z,71.55
2023-05-04T02:00:21.116Z,71.76
2023-05-04T02:03:23.175Z,71.85
2023-05-04T02:06:25.531Z,71.87
2023-05-04T02:09:27.415Z,72.08
2023-05-04T02:12:29.445Z,72.28
2023-05-04T02:15:31.626Z,72.71
2023-05-04T02:18:33.553Z,72.83
2023-05-04T02:21:35.920Z,73.22
2023-05-04T02:24:40.388Z,73.37
2023-05-04T02:27:42.578Z,73.16
2023-05-04T02:30:44.570Z,74.41
2023-05-04T02:33:46.517Z,74.36
2023-05-04T02:36:49.592Z,74.55
2023-05-04T02:39:51.513Z,74.32
2023-05-04T02:42:53.548Z,75.08
2023-05-04T02:45:55.476Z,75.57
2023-05-04T02:48:57.416Z,75.92
2023-05-04T02:51:59.274Z,75.42
2023-05-04T02:55:03.321Z,75.10
2023-05-04T02:58:05.222Z,74.94
2023-05-04T03:01:07.225Z,75.11
2023-05-04T03:04:09.223Z,74.72
2023-05-04T03:07:11.807Z,74.89
2023-05-04T03:10:13.772Z,75.14
2023-05-04T03:13:16.721Z,74.89
2023-05-04T03:16:19.103Z,74.93
2023-05-04T03:19:22.179Z,74.69
2023-05-04T03:22:24.177Z,74.53
2023-05-04T03:25:26.317Z,74.65
2023-05-04T03:28:29.052Z,74.10
2023-05-04T03:31:31.454Z,73.58
2023-05-04T03:34:33.730Z,72.86
2023-05-04T03:37:38.934Z,71.95
2023-05-04T03:40:40.901Z,71.36
2023-05-04T03:43:42.865Z,70.73
2023-05-04T03:46:46.014Z,69.73
2023-05-04T03:49:47.991Z,69.67
2023-05-04T03:52:50.310Z,68.90
2023-05-04T03:55:54.605Z,69.37
2023-05-04T03:58:57.083Z,69.25
2023-05-04T04:02:03.316Z,67.25
2023-05-04T04:05:06.617Z,66.71
2023-05-04T04:08:10.219Z,66.59
2023-05-04T04:11:12.166Z,65.14
2023-05-04T04:14:13.989Z,66.51
2023-05-04T04:17:15.850Z,66.03
2023-05-04T04:20:17.761Z,66.30
2023-05-04T04:23:19.758Z,66.14
2023-05-04T04:26:21.717Z,66.07
2023-05-04T04:29:23.601Z,65.96
2023-05-04T04:32:25.601Z,65.30
2023-05-04T04:35:27.659Z,65.09
2023-05-04T04:38:29.667Z,64.75
2023-05-04T04:41:32.257Z,65.19
2023-05-04T04:44:34.890Z,64.34
2023-05-04T04:47:36.820Z,63.91
2023-05-04T04:50:40.029Z,62.50
2023-05-04T04:53:41.953Z,61.62
2023-05-04T04:56:45.084Z,60.94
2023-05-04T04:59:47.326Z,60.50
2023-05-04T05:02:49.299Z,60.25
2023-05-04T05:05:51.733Z,59.48
2023-05-04T05:08:53.622Z,58.23
2023-05-04T05:11:55.474Z,57.74
2023-05-04T05:14:57.448Z,57.49
2023-05-04T05:17:59.338Z,55.91
2023-05-04T05:21:01.457Z,55.20
2023-05-04T05:24:03.418Z,54.61
2023-05-04T05:27:05.346Z,54.74
2023-05-04T05:30:07.996Z,54.12
2023-05-04T05:33:10.387Z,54.18
2023-05-04T05:36:12.322Z,52.80
2023-05-04T05:39:14.229Z,51.28
2023-05-04T05:42:16.459Z,49.08
2023-05-04T05:45:19.353Z,47.81
2023-05-04T05:48:21.201Z,49.39
2023-05-04T05:51:23.147Z,49.08
2023-05-04T05:54:25.382Z,47.95
2023-05-04T05:57:27.606Z,47.47
2023-05-04T06:00:29.601Z,46.46
2023-05-04T06:03:31.665Z,46.38
2023-05-04T06:06:33.762Z,45.84
2023-05-04T06:09:35.640Z,44.68
2023-05-04T06:12:37.559Z,44.10
2023-05-04T06:15:39.477Z,44.31
2023-05-04T06:18:41.354Z,44.54
2023-05-04T06:21:43.301Z,39.44
2023-05-04T06:24:45.138Z,38.84
2023-05-04T06:27:47.477Z,37.20
2023-05-04T06:30:49.443Z,37.68
2023-05-04T06:33:51.419Z,37.97
2023-05-04T06:36:53.333Z,39.40
2023-05-04T06:39:55.233Z,38.06
2023-05-04T06:42:57.128Z,35.11
2023-05-04T06:46:03.348Z,34.21
2023-05-04T06:49:05.664Z,35.48
2023-05-04T06:52:07.620Z,35.49
2023-05-04T06:55:09.694Z,34.81
2023-05-04T06:58:11.750Z,34.84
2023-05-04T07:01:15.308Z,31.67
2023-05-04T07:04:23.328Z,32.19
2023-05-04T07:07:25.354Z,32.35
2023-05-04T07:10:28.629Z,32.18
2023-05-04T07:13:30.521Z,31.58
2023-05-04T07:16:33.190Z,30.75
2023-05-04T07:19:35.091Z,31.14
2023-05-04T07:22:36.984Z,30.05
2023-05-04T07:25:38.848Z,29.97
2023-05-04T07:28:44.016Z,29.58
2023-05-04T07:31:46.263Z,30.94
2023-05-04T07:34:48.290Z,31.43
2023-05-04T07:37:50.800Z,31.04
2023-05-04T07:40:56.325Z,32.48
2023-05-04T07:43:58.261Z,32.79
2023-05-04T07:47:01.935Z,30.62
2023-05-04T07:50:05.010Z,31.50
2023-05-04T07:53:08.109Z,30.41
2023-05-04T07:56:12.418Z,32.11
2023-05-04T07:59:17.306Z,31.53
2023-05-04T08:02:19.152Z,31.38
2023-05-04T08:05:21.342Z,30.94
2023-05-04T08:08:23.098Z,30.15
2023-05-04T08:11:24.953Z,31.68
2023-05-04T08:14:26.843Z,31.21
2023-05-04T08:17:29.783Z,31.48
2023-05-04T08:20:32.630Z,31.97
2023-05-04T08:23:34.860Z,31.58
2023-05-04T08:26:39.697Z,31.32
2023-05-04T08:29:41.853Z,30.84
2023-05-04T08:32:43.867Z,31.03
2023-05-04T08:35:46.169Z,31.69
2023-05-04T08:38:48.159Z,30.96
2023-05-04T08:41:50.126Z,30.60
2023-05-04T08:44:52.088Z,31.39
2023-05-04T08:47:54.226Z,31.03
2023-05-04T08:50:57.858Z,31.77
2023-05-04T08:54:00.850Z,31.67
2023-05-04T08:57:04.852Z,28.81
2023-05-04T09:00:08.804Z,31.45
2023-05-04T09:03:12.187Z,31.53
2023-05-04T09:06:15.270Z,28.53
2023-05-04T09:09:17.425Z,30.27
2023-05-04T09:12:19.527Z,30.30
2023-05-04T09:15:22.033Z,29.97
2023-05-04T09:18:24.070Z,28.28
2023-05-04T09:21:30.696Z,29.90
2023-05-04T09:24:32.599Z,28.85
2023-05-04T09:27:34.565Z,28.53
2023-05-04T09:30:36.497Z,28.99
2023-05-04T09:33:38.422Z,28.11
2023-05-04T09:36:40.996Z,28.68
2023-05-04T09:39:57.622Z,28.14
2023-05-04T09:43:01.129Z,29.00
2023-05-04T09:46:03.397Z,28.27
2023-05-04T09:49:05.417Z,28.45
2023-05-04T09:52:07.253Z,28.60
2023-05-04T09:55:13.617Z,27.84
2023-05-04T09:58:16.894Z,28.13
2023-05-04T10:01:18.947Z,27.09
2023-05-04T10:04:21.062Z,28.11
2023-05-04T10:07:23.419Z,27.42
2023-05-04T10:10:25.786Z,28.18
2023-05-04T10:13:28.210Z,27.28
2023-05-04T10:16:57.253Z,27.04
2023-05-04T10:20:17.417Z,27.73
2023-05-04T10:23:34.144Z,26.35
2023-05-04T10:27:04.138Z,27.72
2023-05-04T10:30:07.807Z,28.49
2023-05-04T10:33:10.023Z,28.25
2023-05-04T10:36:11.959Z,28.17
2023-05-04T10:39:21.369Z,27.64
2023-05-04T10:42:23.317Z,28.33
2023-05-04T10:45:34.523Z,26.75
2023-05-04T10:48:36.654Z,28.76
2023-05-04T10:51:48.667Z,28.35
2023-05-04T10:55:02.344Z,28.31
2023-05-04T10:58:04.368Z,27.89
2023-05-04T11:01:11.769Z,28.84
2023-05-04T11:04:21.611Z,28.21
2023-05-04T11:07:37.622Z,28.95
2023-05-04T11:10:40.027Z,27.79
2023-05-04T11:13:49.099Z,27.99
2023-05-04T11:16:51.160Z,28.45
2023-05-04T11:19:53.280Z,28.28
2023-05-04T11:22:55.094Z,25.57
2023-05-04T11:25:57.555Z,27.72
2023-05-04T11:28:59.531Z,27.51
2023-05-04T11:32:01.454Z,27.99
2023-05-04T11:35:05.104Z,28.60
2023-05-04T11:38:07.733Z,28.17
2023-05-04T11:41:09.948Z,27.21
2023-05-04T11:44:12.201Z,27.47
2023-05-04T11:47:14.956Z,26.64
2023-05-04T11:50:19.550Z,26.70
2023-05-04T11:53:23.282Z,24.74
2023-05-04T11:56:25.450Z,27.11
2023-05-04T11:59:27.387Z,25.98
2023-05-04T12:02:29.325Z,26.60
2023-05-04T12:05:31.858Z,26.41
2023-05-04T12:08:35.540Z,26.33
2023-05-04T12:11:38.511Z,26.52
2023-05-04T12:14:47.711Z,24.72
2023-05-04T12:17:49.625Z,25.55
2023-05-04T12:20:51.538Z,25.66
2023-05-04T12:23:53.504Z,27.31
2023-05-04T12:26:55.511Z,26.33
2023-05-04T12:33:36.174Z,25.75
2023-05-04T12:36:38.052Z,26.65
2023-05-04T12:39:39.993Z,25.88
2023-05-04T12:42:42.464Z,24.62
2023-05-04T12:45:44.412Z,24.99
2023-05-04T12:48:46.286Z,24.13
2023-05-04T12:51:48.253Z,25.25
2023-05-04T12:54:50.029Z,23.51
2023-05-04T12:57:52.091Z,25.12
2023-05-04T13:00:54.166Z,25.54
2023-05-04T13:03:56.095Z,24.99
2023-05-04T13:06:57.808Z,26.49
2023-05-04T13:09:59.888Z,26.07
2023-05-04T13:13:01.777Z,24.74
2023-05-04T13:16:03.619Z,25.51
2023-05-04T13:19:05.517Z,25.73
2023-05-04T13:22:07.403Z,26.74
2023-05-04T13:25:09.494Z,25.58
2023-05-04T13:28:11.514Z,25.17
2023-05-04T13:31:13.576Z,24.89
2023-05-04T13:34:15.461Z,26.94
2023-05-04T13:37:18.756Z,27.32
2023-05-04T13:40:20.694Z,26.32
2023-05-04T13:43:22.488Z,26.67
2023-05-04T13:46:24.489Z,26.06
2023-05-04T13:49:26.447Z,25.70
2023-05-04T13:52:28.287Z,25.73
2023-05-04T13:55:30.238Z,25.20
2023-05-04T13:58:32.055Z,25.55
2023-05-04T14:01:33.980Z,25.38
2023-05-04T14:04:38.815Z,24.19
2023-05-04T14:07:41.655Z,25.58
2023-05-04T14:10:43.541Z,24.39
2023-05-04T14:13:45.812Z,24.86
2023-05-04T14:16:48.018Z,25.94
2023-05-04T14:19:49.895Z,25.71
2023-05-04T14:22:51.805Z,26.10
2023-05-04T14:25:55.842Z,26.23
2023-05-04T14:28:57.805Z,25.14
2023-05-04T14:31:59.567Z,23.77
2023-05-04T14:35:08.598Z,24.41
2023-05-04T14:38:11.117Z,23.72
2023-05-04T14:41:14.371Z,24.38
2023-05-04T14:44:16.586Z,24.52
2023-05-04T14:47:19.597Z,24.17
2023-05-04T14:50:21.911Z,23.77
2023-05-04T14:53:24.223Z,23.21
2023-05-04T14:56:27.580Z,24.05
2023-05-04T14:59:29.420Z,23.92
2023-05-04T15:02:31.368Z,24.16
2023-05-04T15:05:33.135Z,23.11
2023-05-04T15:08:35.001Z,24.26
2023-05-04T15:11:36.838Z,24.44
2023-05-04T15:14:38.739Z,24.79
2023-05-04T15:17:40.616Z,24.81
2023-05-04T15:20:42.535Z,25.69
2023-05-04T15:23:44.302Z,25.56
2023-05-04T15:26:46.442Z,26.72
2023-05-04T15:29:48.310Z,26.79
2023-05-04T15:32:50.175Z,26.09
2023-05-04T15:35:52.059Z,27.01
2023-05-04T15:38:54.098Z,27.18
2023-05-04T15:41:55.863Z,27.34
2023-05-04T15:44:57.817Z,27.96
2023-05-04T15:48:00.328Z,28.27
2023-05-04T15:51:02.336Z,28.64
2023-05-04T15:54:04.315Z,29.40
2023-05-04T15:57:06.252Z,30.23
2023-05-04T16:00:09.156Z,29.52
2023-05-04T16:03:11.436Z,29.79
2023-05-04T16:06:13.335Z,30.22
2023-05-04T16:09:20.280Z,30.62
2023-05-04T16:12:22.263Z,30.63
2023-05-04T16:15:24.223Z,30.56
2023-05-04T16:18:26.154Z,30.89
2023-05-04T16:21:28.110Z,31.67
2023-05-04T16:24:29.904Z,32.11
2023-05-04T16:27:31.828Z,33.67
2023-05-04T16:30:34.433Z,34.98
2023-05-04T16:33:36.450Z,34.91
2023-05-04T16:36:38.362Z,36.22
2023-05-04T16:39:40.167Z,36.49
2023-05-04T16:42:43.112Z,37.10
2023-05-04T16:45:45.057Z,37.75
2023-05-04T16:48:46.997Z,38.21
2023-05-04T16:51:48.918Z,39.22
2023-05-04T16:54:50.881Z,39.34
2023-05-04T16:57:56.553Z,39.81
2023-05-04T17:00:58.559Z,39.91
2023-05-04T17:04:00.498Z,39.84
2023-05-04T17:07:02.725Z,40.97
2023-05-04T17:10:05.155Z,41.90
2023-05-04T17:13:07.683Z,42.86
2023-05-04T17:16:09.994Z,43.93
2023-05-04T17:19:11.825Z,44.88
2023-05-04T17:22:13.666Z,44.22
2023-05-04T17:25:15.682Z,45.03
2023-05-04T17:28:17.521Z,44.18
2023-05-04T17:31:19.407Z,44.36
2023-05-04T17:34:21.372Z,44.75
2023-05-04T17:37:23.966Z,45.74
2023-05-04T17:40:27.760Z,46.12
2023-05-04T17:43:30.430Z,46.27
2023-05-04T17:46:32.379Z,46.42
2023-05-04T17:49:34.259Z,46.36
2023-05-04T17:52:36.570Z,46.32
2023-05-04T17:55:38.524Z,46.62
2023-05-04T17:58:40.665Z,46.90
2023-05-04T18:01:42.657Z,46.98
2023-05-04T18:04:44.605Z,47.51
2023-05-04T18:07:46.662Z,48.13
2023-05-04T18:10:48.721Z,47.98
2023-05-04T18:13:51.534Z,48.64
2023-05-04T18:16:53.437Z,48.97
2023-05-04T18:19:58.196Z,48.44
2023-05-04T18:23:00.238Z,48.67
2023-05-04T18:26:02.120Z,49.01
2023-05-04T18:29:17.411Z,48.69
2023-05-04T18:32:21.090Z,49.04
2023-05-04T18:35:24.099Z,49.79
2023-05-04T18:38:26.642Z,50.10
2023-05-04T18:41:28.731Z,52.56
2023-05-04T18:44:30.623Z,51.01
2023-05-04T18:47:32.793Z,51.55
2023-05-04T18:50:34.737Z,52.34
2023-05-04T18:53:36.658Z,52.68
2023-05-04T18:56:38.596Z,52.80
2023-05-04T18:59:41.019Z,53.29
2023-05-04T19:02:42.965Z,53.73
2023-05-04T19:05:44.887Z,54.27
2023-05-04T19:08:46.762Z,54.50
2023-05-04T19:11:48.703Z,55.34
2023-05-04T19:14:51.270Z,55.36
2023-05-04T19:17:53.185Z,56.92
2023-05-04T19:20:55.033Z,55.46
2023-05-04T19:23:56.898Z,55.41
2023-05-04T19:27:00.366Z,55.56
2023-05-04T19:30:02.189Z,55.18
2023-05-04T19:33:05.698Z,55.85
2023-05-04T19:36:07.792Z,56.08
2023-05-04T19:39:13.385Z,57.26
2023-05-04T19:42:15.288Z,56.67
2023-05-04T19:45:17.383Z,56.36
2023-05-04T19:48:21.517Z,56.58
2023-05-04T19:51:23.444Z,56.04
2023-05-04T19:54:25.342Z,55.61
2023-05-04T19:57:27.988Z,55.16
2023-05-04T20:00:29.825Z,55.17
2023-05-04T20:03:31.782Z,53.96
2023-05-04T20:06:33.878Z,53.24
2023-05-04T20:09:35.907Z,53.86
2023-05-04T20:12:37.751Z,53.13
2023-05-04T20:15:39.716Z,53.47
2023-05-04T20:18:41.795Z,54.50
2023-05-04T20:21:43.662Z,55.11
2023-05-04T20:24:45.589Z,54.70
2023-05-04T20:27:48.759Z,54.61
2023-05-04T20:30:50.868Z,55.44
2023-05-04T20:33:52.774Z,55.46
2023-05-04T20:36:54.658Z,55.60
2023-05-04T20:39:56.668Z,56.51
2023-05-04T20:42:58.582Z,56.40
2023-05-04T20:46:00.604Z,56.28
2023-05-04T20:49:03.015Z,56.96
2023-05-04T20:52:05.244Z,57.38
2023-05-04T20:55:08.048Z,57.77
2023-05-04T20:58:10.015Z,57.87
2023-05-04T21:01:11.976Z,57.95
2023-05-04T21:04:15.066Z,58.37
2023-05-04T21:07:17.041Z,58.40
2023-05-04T21:10:19.916Z,58.14
2023-05-04T21:13:21.824Z,58.79
2023-05-04T22:45:59.175Z,65.14
2023-05-04T22:49:01.894Z,65.37
2023-05-04T22:52:05.815Z,67.07
2023-05-04T22:55:10.239Z,66.29
2023-05-04T22:58:17.341Z,66.56
2023-05-04T23:02:24.920Z,67.35
2023-05-04T23:05:45.729Z,66.42
2023-05-04T23:08:47.629Z,66.08
2023-05-04T23:11:49.624Z,66.10
2023-05-04T23:14:52.510Z,65.71
2023-05-04T23:17:54.422Z,66.13
2023-05-04T23:20:56.274Z,66.21
2023-05-04T23:23:58.233Z,66.49
2023-05-04T23:27:00.132Z,67.19
2023-05-04T23:30:02.041Z,67.78
2023-05-04T23:33:04.021Z,67.33
2023-05-04T23:36:06.528Z,67.55
2023-05-04T23:39:08.660Z,67.37
2023-05-04T23:42:10.608Z,66.86
2023-05-04T23:45:12.447Z,67.18
2023-05-04T23:48:14.316Z,67.09
2023-05-04T23:51:16.100Z,67.35
2023-05-04T23:54:18.035Z,66.72
2023-05-04T23:57:19.893Z,66.49
